sensor_id;sensor_type;location;lat;lon;timestamp;P1;durP1;ratioP1;P2;durP2;ratioP2
44212;SDS011;29882;46.356;17.798;2022-10-16T00:01:29;17.33;;;12.15;;
44212;SDS011;29882;46.356;17.798;2022-10-16T00:03:58;17.55;;;13.20;;
44212;SDS011;29882;46.356;17.798;2022-10-16T00:06:26;15.65;;;12.93;;
44212;SDS011;29882;46.356;17.798;2022-10-16T00:08:55;17.88;;;13.45;;
44212;SDS011;29882;46.356;17.798;2022-10-16T00:11:26;20.05;;;13.98;;
44212;SDS011;29882;46.356;17.798;2022-10-16T00:16:24;17.60;;;13.57;;
44212;SDS011;29882;46.356;17.798;2022-10-16T00:18:51;21.50;;;13.98;;
44212;SDS011;29882;46.356;17.798;2022-10-16T00:21:20;17.83;;;13.57;;
44212;SDS011;29882;46.356;17.798;2022-10-16T00:23:52;18.90;;;13.30;;
44212;SDS011;29882;46.356;17.798;2022-10-16T00:26:20;20.55;;;13.25;;
44212;SDS011;29882;46.356;17.798;2022-10-16T00:28:48;19.23;;;13.25;;
44212;SDS011;29882;46.356;17.798;2022-10-16T00:31:16;18.15;;;13.05;;
44212;SDS011;29882;46.356;17.798;2022-10-16T00:33:45;23.90;;;13.82;;
44212;SDS011;29882;46.356;17.798;2022-10-16T00:36:13;18.92;;;12.30;;
44212;SDS011;29882;46.356;17.798;2022-10-16T00:38:42;21.70;;;11.90;;
44212;SDS011;29882;46.356;17.798;2022-10-16T00:41:11;16.35;;;12.95;;
44212;SDS011;29882;46.356;17.798;2022-10-16T00:51:36;15.98;;;12.90;;
44212;SDS011;29882;46.356;17.798;2022-10-16T00:54:06;15.43;;;12.68;;
44212;SDS011;29882;46.356;17.798;2022-10-16T00:56:37;17.67;;;12.45;;
44212;SDS011;29882;46.356;17.798;2022-10-16T00:59:06;15.90;;;12.38;;
44212;SDS011;29882;46.356;17.798;2022-10-16T01:01:40;23.08;;;12.40;;
44212;SDS011;29882;46.356;17.798;2022-10-16T01:04:07;21.92;;;12.85;;
44212;SDS011;29882;46.356;17.798;2022-10-16T01:09:18;18.85;;;13.10;;
44212;SDS011;29882;46.356;17.798;2022-10-16T01:14:32;19.83;;;13.48;;
44212;SDS011;29882;46.356;17.798;2022-10-16T01:17:14;20.30;;;12.05;;
44212;SDS011;29882;46.356;17.798;2022-10-16T01:28:21;16.95;;;12.55;;
44212;SDS011;29882;46.356;17.798;2022-10-16T01:30:53;18.48;;;13.02;;
44212;SDS011;29882;46.356;17.798;2022-10-16T01:33:28;17.75;;;12.55;;
44212;SDS011;29882;46.356;17.798;2022-10-16T01:36:02;15.80;;;12.52;;
44212;SDS011;29882;46.356;17.798;2022-10-16T01:38:37;19.25;;;12.65;;
44212;SDS011;29882;46.356;17.798;2022-10-16T01:41:10;15.95;;;13.15;;
44212;SDS011;29882;46.356;17.798;2022-10-16T01:43:46;20.05;;;12.70;;
44212;SDS011;29882;46.356;17.798;2022-10-16T01:46:18;17.35;;;13.07;;
44212;SDS011;29882;46.356;17.798;2022-10-16T01:48:48;18.90;;;13.40;;
44212;SDS011;29882;46.356;17.798;2022-10-16T01:51:17;16.75;;;12.73;;
44212;SDS011;29882;46.356;17.798;2022-10-16T01:53:47;15.93;;;13.15;;
44212;SDS011;29882;46.356;17.798;2022-10-16T01:56:18;16.02;;;12.90;;
44212;SDS011;29882;46.356;17.798;2022-10-16T01:58:50;19.15;;;13.50;;
44212;SDS011;29882;46.356;17.798;2022-10-16T02:01:24;16.45;;;12.65;;
44212;SDS011;29882;46.356;17.798;2022-10-16T02:03:56;21.30;;;13.55;;
44212;SDS011;29882;46.356;17.798;2022-10-16T02:06:28;19.17;;;12.67;;
44212;SDS011;29882;46.356;17.798;2022-10-16T02:08:56;20.65;;;13.25;;
44212;SDS011;29882;46.356;17.798;2022-10-16T02:11:23;22.13;;;13.68;;
44212;SDS011;29882;46.356;17.798;2022-10-16T02:13:52;19.52;;;13.93;;
44212;SDS011;29882;46.356;17.798;2022-10-16T02:16:23;17.02;;;12.98;;
44212;SDS011;29882;46.356;17.798;2022-10-16T02:18:59;17.90;;;13.23;;
44212;SDS011;29882;46.356;17.798;2022-10-16T02:21:32;17.10;;;13.35;;
44212;SDS011;29882;46.356;17.798;2022-10-16T02:24:11;21.65;;;13.50;;
44212;SDS011;29882;46.356;17.798;2022-10-16T02:26:49;15.88;;;12.48;;
44212;SDS011;29882;46.356;17.798;2022-10-16T02:29:26;15.23;;;13.10;;
44212;SDS011;29882;46.356;17.798;2022-10-16T02:31:59;20.77;;;13.57;;
44212;SDS011;29882;46.356;17.798;2022-10-16T02:34:31;19.75;;;13.27;;
44212;SDS011;29882;46.356;17.798;2022-10-16T02:37:00;17.60;;;11.98;;
44212;SDS011;29882;46.356;17.798;2022-10-16T02:39:30;16.70;;;13.40;;
44212;SDS011;29882;46.356;17.798;2022-10-16T02:41:58;19.70;;;13.60;;
44212;SDS011;29882;46.356;17.798;2022-10-16T02:44:25;17.20;;;13.02;;
44212;SDS011;29882;46.356;17.798;2022-10-16T02:46:52;16.88;;;13.40;;
44212;SDS011;29882;46.356;17.798;2022-10-16T02:49:19;17.83;;;13.00;;
44212;SDS011;29882;46.356;17.798;2022-10-16T02:51:46;16.55;;;12.93;;
44212;SDS011;29882;46.356;17.798;2022-10-16T02:54:13;18.25;;;13.27;;
44212;SDS011;29882;46.356;17.798;2022-10-16T02:56:40;17.88;;;12.80;;
44212;SDS011;29882;46.356;17.798;2022-10-16T02:59:07;17.95;;;13.85;;
44212;SDS011;29882;46.356;17.798;2022-10-16T03:01:34;18.48;;;13.65;;
44212;SDS011;29882;46.356;17.798;2022-10-16T03:04:02;18.90;;;14.40;;
44212;SDS011;29882;46.356;17.798;2022-10-16T03:06:29;22.33;;;14.70;;
44212;SDS011;29882;46.356;17.798;2022-10-16T03:08:57;18.52;;;15.25;;
44212;SDS011;29882;46.356;17.798;2022-10-16T03:11:24;21.75;;;14.52;;
44212;SDS011;29882;46.356;17.798;2022-10-16T03:13:51;19.90;;;14.43;;
44212;SDS011;29882;46.356;17.798;2022-10-16T03:16:18;18.58;;;14.60;;
44212;SDS011;29882;46.356;17.798;2022-10-16T03:18:49;20.98;;;15.15;;
44212;SDS011;29882;46.356;17.798;2022-10-16T03:21:16;21.92;;;14.55;;
44212;SDS011;29882;46.356;17.798;2022-10-16T03:23:43;20.17;;;15.15;;
44212;SDS011;29882;46.356;17.798;2022-10-16T03:26:10;18.65;;;14.48;;
44212;SDS011;29882;46.356;17.798;2022-10-16T03:28:37;19.05;;;15.05;;
44212;SDS011;29882;46.356;17.798;2022-10-16T03:31:04;20.75;;;15.10;;
44212;SDS011;29882;46.356;17.798;2022-10-16T03:33:31;20.73;;;14.50;;
44212;SDS011;29882;46.356;17.798;2022-10-16T03:35:58;17.55;;;14.95;;
44212;SDS011;29882;46.356;17.798;2022-10-16T03:38:25;22.88;;;15.60;;
44212;SDS011;29882;46.356;17.798;2022-10-16T03:40:52;21.15;;;15.90;;
44212;SDS011;29882;46.356;17.798;2022-10-16T03:43:19;19.88;;;15.15;;
44212;SDS011;29882;46.356;17.798;2022-10-16T03:45:46;23.17;;;15.60;;
44212;SDS011;29882;46.356;17.798;2022-10-16T03:48:13;21.83;;;14.93;;
44212;SDS011;29882;46.356;17.798;2022-10-16T03:50:40;21.73;;;15.30;;
44212;SDS011;29882;46.356;17.798;2022-10-16T03:53:07;19.60;;;14.13;;
44212;SDS011;29882;46.356;17.798;2022-10-16T03:55:34;21.33;;;14.52;;
44212;SDS011;29882;46.356;17.798;2022-10-16T03:58:01;22.65;;;14.82;;
44212;SDS011;29882;46.356;17.798;2022-10-16T04:00:29;22.40;;;15.60;;
44212;SDS011;29882;46.356;17.798;2022-10-16T04:02:56;20.25;;;15.63;;
44212;SDS011;29882;46.356;17.798;2022-10-16T04:05:22;19.73;;;15.18;;
44212;SDS011;29882;46.356;17.798;2022-10-16T04:07:49;19.05;;;14.55;;
44212;SDS011;29882;46.356;17.798;2022-10-16T04:10:16;19.73;;;15.68;;
44212;SDS011;29882;46.356;17.798;2022-10-16T04:12:43;18.27;;;14.55;;
44212;SDS011;29882;46.356;17.798;2022-10-16T04:15:10;20.13;;;15.50;;
44212;SDS011;29882;46.356;17.798;2022-10-16T04:17:37;19.92;;;14.73;;
44212;SDS011;29882;46.356;17.798;2022-10-16T04:20:05;23.58;;;15.70;;
44212;SDS011;29882;46.356;17.798;2022-10-16T04:22:33;17.38;;;14.93;;
44212;SDS011;29882;46.356;17.798;2022-10-16T04:25:00;21.15;;;15.55;;
44212;SDS011;29882;46.356;17.798;2022-10-16T04:27:27;21.05;;;15.52;;
44212;SDS011;29882;46.356;17.798;2022-10-16T04:29:55;21.00;;;16.73;;
44212;SDS011;29882;46.356;17.798;2022-10-16T04:32:22;26.98;;;18.10;;
44212;SDS011;29882;46.356;17.798;2022-10-16T04:34:49;23.40;;;17.75;;
44212;SDS011;29882;46.356;17.798;2022-10-16T04:37:16;22.90;;;17.25;;
44212;SDS011;29882;46.356;17.798;2022-10-16T04:39:43;26.02;;;18.33;;
44212;SDS011;29882;46.356;17.798;2022-10-16T04:42:11;24.85;;;17.73;;
44212;SDS011;29882;46.356;17.798;2022-10-16T04:44:38;22.00;;;17.88;;
44212;SDS011;29882;46.356;17.798;2022-10-16T04:47:05;23.02;;;18.25;;
44212;SDS011;29882;46.356;17.798;2022-10-16T04:49:32;27.45;;;18.50;;
44212;SDS011;29882;46.356;17.798;2022-10-16T04:51:59;28.88;;;18.95;;
44212;SDS011;29882;46.356;17.798;2022-10-16T04:54:26;24.83;;;18.15;;
44212;SDS011;29882;46.356;17.798;2022-10-16T04:56:53;22.90;;;17.50;;
44212;SDS011;29882;46.356;17.798;2022-10-16T04:59:20;22.33;;;17.77;;
44212;SDS011;29882;46.356;17.798;2022-10-16T05:01:48;21.60;;;17.85;;
44212;SDS011;29882;46.356;17.798;2022-10-16T05:04:16;24.15;;;17.98;;
44212;SDS011;29882;46.356;17.798;2022-10-16T05:06:43;19.33;;;16.38;;
44212;SDS011;29882;46.356;17.798;2022-10-16T05:09:10;19.50;;;17.35;;
44212;SDS011;29882;46.356;17.798;2022-10-16T05:11:37;25.77;;;17.73;;
44212;SDS011;29882;46.356;17.798;2022-10-16T05:14:04;27.45;;;17.08;;
44212;SDS011;29882;46.356;17.798;2022-10-16T05:16:31;22.17;;;17.38;;
44212;SDS011;29882;46.356;17.798;2022-10-16T05:18:58;22.70;;;16.98;;
44212;SDS011;29882;46.356;17.798;2022-10-16T05:21:45;21.30;;;17.08;;
44212;SDS011;29882;46.356;17.798;2022-10-16T05:24:12;21.67;;;17.25;;
44212;SDS011;29882;46.356;17.798;2022-10-16T05:26:39;21.70;;;17.15;;
44212;SDS011;29882;46.356;17.798;2022-10-16T05:29:06;20.33;;;16.95;;
44212;SDS011;29882;46.356;17.798;2022-10-16T05:31:33;24.75;;;18.02;;
44212;SDS011;29882;46.356;17.798;2022-10-16T05:34:00;28.50;;;18.08;;
44212;SDS011;29882;46.356;17.798;2022-10-16T05:36:28;21.23;;;16.75;;
44212;SDS011;29882;46.356;17.798;2022-10-16T05:38:55;22.17;;;17.05;;
44212;SDS011;29882;46.356;17.798;2022-10-16T05:41:22;23.33;;;17.17;;
44212;SDS011;29882;46.356;17.798;2022-10-16T05:43:52;24.08;;;17.85;;
44212;SDS011;29882;46.356;17.798;2022-10-16T05:46:20;23.92;;;17.80;;
44212;SDS011;29882;46.356;17.798;2022-10-16T05:48:47;25.85;;;17.90;;
44212;SDS011;29882;46.356;17.798;2022-10-16T05:51:14;32.63;;;21.35;;
44212;SDS011;29882;46.356;17.798;2022-10-16T05:53:41;32.15;;;20.75;;
44212;SDS011;29882;46.356;17.798;2022-10-16T05:56:10;32.78;;;22.27;;
44212;SDS011;29882;46.356;17.798;2022-10-16T05:58:38;33.35;;;23.30;;
44212;SDS011;29882;46.356;17.798;2022-10-16T06:01:09;27.00;;;20.00;;
44212;SDS011;29882;46.356;17.798;2022-10-16T06:03:38;25.05;;;18.33;;
44212;SDS011;29882;46.356;17.798;2022-10-16T06:06:15;24.17;;;19.05;;
44212;SDS011;29882;46.356;17.798;2022-10-16T06:08:47;22.20;;;18.27;;
44212;SDS011;29882;46.356;17.798;2022-10-16T06:11:16;21.95;;;18.02;;
44212;SDS011;29882;46.356;17.798;2022-10-16T06:13:51;28.50;;;19.40;;
44212;SDS011;29882;46.356;17.798;2022-10-16T06:16:19;29.50;;;18.42;;
44212;SDS011;29882;46.356;17.798;2022-10-16T06:18:47;23.63;;;17.73;;
44212;SDS011;29882;46.356;17.798;2022-10-16T06:21:16;24.45;;;17.65;;
44212;SDS011;29882;46.356;17.798;2022-10-16T06:23:44;25.38;;;16.95;;
44212;SDS011;29882;46.356;17.798;2022-10-16T06:26:13;24.83;;;17.98;;
44212;SDS011;29882;46.356;17.798;2022-10-16T06:28:45;25.20;;;17.33;;
44212;SDS011;29882;46.356;17.798;2022-10-16T06:31:12;21.10;;;17.50;;
44212;SDS011;29882;46.356;17.798;2022-10-16T06:33:40;25.92;;;18.55;;
44212;SDS011;29882;46.356;17.798;2022-10-16T06:36:10;20.98;;;17.33;;
44212;SDS011;29882;46.356;17.798;2022-10-16T06:38:41;19.85;;;17.58;;
44212;SDS011;29882;46.356;17.798;2022-10-16T06:41:09;26.52;;;18.33;;
44212;SDS011;29882;46.356;17.798;2022-10-16T06:43:39;23.70;;;18.23;;
44212;SDS011;29882;46.356;17.798;2022-10-16T06:46:07;26.45;;;18.02;;
44212;SDS011;29882;46.356;17.798;2022-10-16T06:48:37;23.13;;;18.35;;
44212;SDS011;29882;46.356;17.798;2022-10-16T06:53:35;27.63;;;18.83;;
44212;SDS011;29882;46.356;17.798;2022-10-16T06:56:26;22.58;;;17.63;;
44212;SDS011;29882;46.356;17.798;2022-10-16T06:58:54;23.13;;;18.23;;
44212;SDS011;29882;46.356;17.798;2022-10-16T07:01:22;21.23;;;17.58;;
44212;SDS011;29882;46.356;17.798;2022-10-16T07:03:50;21.85;;;16.65;;
44212;SDS011;29882;46.356;17.798;2022-10-16T07:06:18;21.98;;;16.83;;
44212;SDS011;29882;46.356;17.798;2022-10-16T07:08:47;19.52;;;16.20;;
44212;SDS011;29882;46.356;17.798;2022-10-16T07:11:16;23.60;;;17.10;;
44212;SDS011;29882;46.356;17.798;2022-10-16T07:13:45;24.30;;;16.25;;
44212;SDS011;29882;46.356;17.798;2022-10-16T07:16:21;25.42;;;16.63;;
44212;SDS011;29882;46.356;17.798;2022-10-16T07:18:50;22.88;;;16.88;;
44212;SDS011;29882;46.356;17.798;2022-10-16T07:21:21;25.23;;;17.00;;
44212;SDS011;29882;46.356;17.798;2022-10-16T07:23:52;24.58;;;15.32;;
44212;SDS011;29882;46.356;17.798;2022-10-16T07:26:21;19.70;;;14.40;;
44212;SDS011;29882;46.356;17.798;2022-10-16T07:28:49;23.50;;;15.32;;
44212;SDS011;29882;46.356;17.798;2022-10-16T07:31:17;19.50;;;14.73;;
44212;SDS011;29882;46.356;17.798;2022-10-16T07:33:46;22.02;;;15.55;;
44212;SDS011;29882;46.356;17.798;2022-10-16T07:36:18;23.77;;;15.07;;
44212;SDS011;29882;46.356;17.798;2022-10-16T07:38:46;23.65;;;15.75;;
44212;SDS011;29882;46.356;17.798;2022-10-16T07:41:15;31.77;;;17.02;;
44212;SDS011;29882;46.356;17.798;2022-10-16T07:43:47;19.52;;;14.77;;
44212;SDS011;29882;46.356;17.798;2022-10-16T07:46:16;17.98;;;13.50;;
44212;SDS011;29882;46.356;17.798;2022-10-16T07:48:43;15.90;;;12.65;;
44212;SDS011;29882;46.356;17.798;2022-10-16T07:51:14;17.35;;;12.98;;
44212;SDS011;29882;46.356;17.798;2022-10-16T07:53:43;18.88;;;13.23;;
44212;SDS011;29882;46.356;17.798;2022-10-16T07:56:10;18.35;;;12.32;;
44212;SDS011;29882;46.356;17.798;2022-10-16T07:58:38;16.48;;;12.18;;
44212;SDS011;29882;46.356;17.798;2022-10-16T08:01:06;24.75;;;13.15;;
44212;SDS011;29882;46.356;17.798;2022-10-16T08:03:34;16.98;;;12.43;;
44212;SDS011;29882;46.356;17.798;2022-10-16T08:06:02;19.35;;;12.95;;
44212;SDS011;29882;46.356;17.798;2022-10-16T08:08:30;17.23;;;12.63;;
44212;SDS011;29882;46.356;17.798;2022-10-16T08:10:57;16.38;;;13.18;;
44212;SDS011;29882;46.356;17.798;2022-10-16T08:13:25;15.75;;;12.35;;
44212;SDS011;29882;46.356;17.798;2022-10-16T08:15:53;14.63;;;12.35;;
44212;SDS011;29882;46.356;17.798;2022-10-16T08:18:20;17.63;;;13.25;;
44212;SDS011;29882;46.356;17.798;2022-10-16T08:20:54;20.40;;;13.13;;
44212;SDS011;29882;46.356;17.798;2022-10-16T08:23:25;18.40;;;13.52;;
44212;SDS011;29882;46.356;17.798;2022-10-16T08:25:54;18.17;;;12.38;;
44212;SDS011;29882;46.356;17.798;2022-10-16T08:28:23;17.17;;;13.05;;
44212;SDS011;29882;46.356;17.798;2022-10-16T08:30:50;16.33;;;12.45;;
44212;SDS011;29882;46.356;17.798;2022-10-16T08:33:17;20.02;;;14.15;;
44212;SDS011;29882;46.356;17.798;2022-10-16T08:35:51;20.98;;;13.48;;
44212;SDS011;29882;46.356;17.798;2022-10-16T08:38:20;18.75;;;14.00;;
44212;SDS011;29882;46.356;17.798;2022-10-16T08:40:47;17.83;;;14.15;;
44212;SDS011;29882;46.356;17.798;2022-10-16T08:49:03;20.35;;;13.57;;
44212;SDS011;29882;46.356;17.798;2022-10-16T08:51:35;18.35;;;14.57;;
44212;SDS011;29882;46.356;17.798;2022-10-16T08:56:55;18.83;;;14.07;;
44212;SDS011;29882;46.356;17.798;2022-10-16T08:59:37;15.80;;;13.23;;
44212;SDS011;29882;46.356;17.798;2022-10-16T09:02:13;20.30;;;12.73;;
44212;SDS011;29882;46.356;17.798;2022-10-16T09:07:40;18.73;;;13.18;;
44212;SDS011;29882;46.356;17.798;2022-10-16T09:18:22;22.92;;;14.35;;
44212;SDS011;29882;46.356;17.798;2022-10-16T09:26:43;26.75;;;15.95;;
44212;SDS011;29882;46.356;17.798;2022-10-16T09:29:14;46.08;;;29.10;;
44212;SDS011;29882;46.356;17.798;2022-10-16T09:31:42;31.20;;;21.20;;
44212;SDS011;29882;46.356;17.798;2022-10-16T09:37:00;25.40;;;16.83;;
44212;SDS011;29882;46.356;17.798;2022-10-16T09:39:30;33.30;;;20.38;;
44212;SDS011;29882;46.356;17.798;2022-10-16T09:41:57;31.85;;;20.42;;
44212;SDS011;29882;46.356;17.798;2022-10-16T09:44:26;22.85;;;17.35;;
44212;SDS011;29882;46.356;17.798;2022-10-16T09:47:11;23.48;;;16.17;;
44212;SDS011;29882;46.356;17.798;2022-10-16T09:49:50;21.98;;;15.73;;
44212;SDS011;29882;46.356;17.798;2022-10-16T09:52:28;23.90;;;16.88;;
44212;SDS011;29882;46.356;17.798;2022-10-16T09:54:57;26.70;;;18.08;;
44212;SDS011;29882;46.356;17.798;2022-10-16T09:57:26;18.95;;;15.40;;
44212;SDS011;29882;46.356;17.798;2022-10-16T09:59:55;30.50;;;20.27;;
44212;SDS011;29882;46.356;17.798;2022-10-16T10:02:30;27.83;;;17.13;;
44212;SDS011;29882;46.356;17.798;2022-10-16T10:05:01;28.95;;;17.85;;
44212;SDS011;29882;46.356;17.798;2022-10-16T10:07:31;21.45;;;16.38;;
44212;SDS011;29882;46.356;17.798;2022-10-16T10:10:02;21.13;;;15.20;;
44212;SDS011;29882;46.356;17.798;2022-10-16T10:12:33;23.25;;;17.50;;
44212;SDS011;29882;46.356;17.798;2022-10-16T10:15:04;23.58;;;17.67;;
44212;SDS011;29882;46.356;17.798;2022-10-16T10:17:44;20.90;;;15.48;;
44212;SDS011;29882;46.356;17.798;2022-10-16T10:20:26;20.80;;;15.48;;
44212;SDS011;29882;46.356;17.798;2022-10-16T10:23:01;22.63;;;17.02;;
44212;SDS011;29882;46.356;17.798;2022-10-16T10:28:50;23.38;;;17.10;;
44212;SDS011;29882;46.356;17.798;2022-10-16T10:31:34;22.58;;;17.83;;
44212;SDS011;29882;46.356;17.798;2022-10-16T10:37:02;21.50;;;17.20;;
44212;SDS011;29882;46.356;17.798;2022-10-16T10:39:37;20.83;;;17.30;;
44212;SDS011;29882;46.356;17.798;2022-10-16T10:45:44;20.70;;;16.85;;
44212;SDS011;29882;46.356;17.798;2022-10-16T10:48:23;21.55;;;19.17;;
44212;SDS011;29882;46.356;17.798;2022-10-16T11:02:04;19.27;;;17.05;;
44212;SDS011;29882;46.356;17.798;2022-10-16T11:10:50;22.38;;;19.17;;
44212;SDS011;29882;46.356;17.798;2022-10-16T11:13:24;19.65;;;17.58;;
44212;SDS011;29882;46.356;17.798;2022-10-16T11:16:15;23.73;;;19.38;;
44212;SDS011;29882;46.356;17.798;2022-10-16T11:18:52;21.48;;;17.00;;
44212;SDS011;29882;46.356;17.798;2022-10-16T11:21:25;21.17;;;18.55;;
44212;SDS011;29882;46.356;17.798;2022-10-16T11:23:58;21.05;;;16.48;;
44212;SDS011;29882;46.356;17.798;2022-10-16T11:26:34;20.58;;;17.48;;
44212;SDS011;29882;46.356;17.798;2022-10-16T11:29:08;23.30;;;18.77;;
44212;SDS011;29882;46.356;17.798;2022-10-16T11:31:49;18.83;;;16.52;;
44212;SDS011;29882;46.356;17.798;2022-10-16T11:34:34;23.15;;;17.35;;
44212;SDS011;29882;46.356;17.798;2022-10-16T11:37:17;18.63;;;16.27;;
44212;SDS011;29882;46.356;17.798;2022-10-16T11:39:52;19.65;;;16.05;;
44212;SDS011;29882;46.356;17.798;2022-10-16T11:42:40;20.55;;;17.13;;
44212;SDS011;29882;46.356;17.798;2022-10-16T11:45:36;17.63;;;15.85;;
44212;SDS011;29882;46.356;17.798;2022-10-16T11:54:47;19.35;;;15.43;;
44212;SDS011;29882;46.356;17.798;2022-10-16T11:57:21;19.88;;;15.68;;
44212;SDS011;29882;46.356;17.798;2022-10-16T12:08:14;17.95;;;14.75;;
44212;SDS011;29882;46.356;17.798;2022-10-16T12:10:44;16.58;;;14.80;;
44212;SDS011;29882;46.356;17.798;2022-10-16T12:16:07;16.85;;;14.13;;
44212;SDS011;29882;46.356;17.798;2022-10-16T12:18:49;16.13;;;14.18;;
44212;SDS011;29882;46.356;17.798;2022-10-16T12:21:36;18.55;;;15.02;;
44212;SDS011;29882;46.356;17.798;2022-10-16T12:24:03;16.67;;;15.00;;
44212;SDS011;29882;46.356;17.798;2022-10-16T12:26:32;16.67;;;14.88;;
44212;SDS011;29882;46.356;17.798;2022-10-16T12:31:44;17.95;;;14.02;;
44212;SDS011;29882;46.356;17.798;2022-10-16T12:34:25;15.52;;;13.93;;
44212;SDS011;29882;46.356;17.798;2022-10-16T12:36:56;16.77;;;15.00;;
44212;SDS011;29882;46.356;17.798;2022-10-16T12:39:41;19.77;;;14.75;;
44212;SDS011;29882;46.356;17.798;2022-10-16T12:44:55;15.65;;;13.93;;
44212;SDS011;29882;46.356;17.798;2022-10-16T12:50:27;16.40;;;14.55;;
44212;SDS011;29882;46.356;17.798;2022-10-16T12:53:00;16.70;;;15.00;;
44212;SDS011;29882;46.356;17.798;2022-10-16T12:55:33;16.15;;;14.65;;
44212;SDS011;29882;46.356;17.798;2022-10-16T12:58:13;16.13;;;14.50;;
44212;SDS011;29882;46.356;17.798;2022-10-16T13:00:53;22.35;;;14.68;;
44212;SDS011;29882;46.356;17.798;2022-10-16T13:11:50;16.20;;;14.02;;
44212;SDS011;29882;46.356;17.798;2022-10-16T13:14:30;18.45;;;14.48;;
44212;SDS011;29882;46.356;17.798;2022-10-16T13:30:31;20.00;;;14.75;;
44212;SDS011;29882;46.356;17.798;2022-10-16T13:33:07;17.83;;;16.10;;
44212;SDS011;29882;46.356;17.798;2022-10-16T13:35:52;17.05;;;15.25;;
44212;SDS011;29882;46.356;17.798;2022-10-16T13:38:22;18.20;;;14.85;;
44212;SDS011;29882;46.356;17.798;2022-10-16T13:41:00;17.33;;;15.60;;
44212;SDS011;29882;46.356;17.798;2022-10-16T13:46:23;17.77;;;15.88;;
44212;SDS011;29882;46.356;17.798;2022-10-16T13:48:58;16.63;;;14.50;;
44212;SDS011;29882;46.356;17.798;2022-10-16T13:51:29;17.13;;;15.32;;
44212;SDS011;29882;46.356;17.798;2022-10-16T13:53:57;17.10;;;14.80;;
44212;SDS011;29882;46.356;17.798;2022-10-16T13:56:26;18.38;;;15.45;;
44212;SDS011;29882;46.356;17.798;2022-10-16T13:59:05;16.23;;;14.73;;
44212;SDS011;29882;46.356;17.798;2022-10-16T14:01:48;17.40;;;15.45;;
44212;SDS011;29882;46.356;17.798;2022-10-16T14:04:18;16.60;;;15.10;;
44212;SDS011;29882;46.356;17.798;2022-10-16T14:06:46;18.58;;;16.17;;
44212;SDS011;29882;46.356;17.798;2022-10-16T14:09:26;20.17;;;16.27;;
44212;SDS011;29882;46.356;17.798;2022-10-16T14:12:02;22.70;;;16.17;;
44212;SDS011;29882;46.356;17.798;2022-10-16T14:14:40;17.25;;;15.55;;
44212;SDS011;29882;46.356;17.798;2022-10-16T14:17:20;20.98;;;16.05;;
44212;SDS011;29882;46.356;17.798;2022-10-16T14:19:51;17.42;;;15.80;;
44212;SDS011;29882;46.356;17.798;2022-10-16T14:22:38;17.13;;;15.43;;
44212;SDS011;29882;46.356;17.798;2022-10-16T14:30:53;16.83;;;15.10;;
44212;SDS011;29882;46.356;17.798;2022-10-16T14:36:02;18.38;;;15.98;;
44212;SDS011;29882;46.356;17.798;2022-10-16T14:38:35;18.38;;;16.08;;
44212;SDS011;29882;46.356;17.798;2022-10-16T14:41:03;18.15;;;15.68;;
44212;SDS011;29882;46.356;17.798;2022-10-16T14:43:41;16.90;;;15.30;;
44212;SDS011;29882;46.356;17.798;2022-10-16T14:46:19;18.98;;;14.95;;
44212;SDS011;29882;46.356;17.798;2022-10-16T14:48:52;23.25;;;16.40;;
44212;SDS011;29882;46.356;17.798;2022-10-16T14:51:26;18.88;;;16.45;;
